Time;durP1;ratioP1;P1;durP2;ratioP2;P2;SDS_P1;SDS_P2;PMS_P1;PMS_P2;Temp;Humidity;BMP_temperature;BMP_pressure;BME280_temperature;BME280_humidity;BME280_pressure;Samples;Min_cycle;Max_cycle;Signal;HPM_P1;HPM_P2
2022/08/19 00:01:52;;;;;;;;;;;23.10;99.90;;;;;;2621965;54;19969;-64
2022/08/19 00:04:24;;;;;;;;;;;23.10;99.90;;;;;;2619097;54;19985;-67
2022/08/19 00:06:54;;;;;;;;;;;23.10;99.90;;;;;;2617936;54;19945;-68
2022/08/19 00:09:24;;;;;;;;;;;23.30;99.90;;;;;;2617671;54;19951;-68
2022/08/19 00:11:58;;;;;;;;;;;23.10;99.90;;;;;;2618573;54;19953;-67
2022/08/19 00:14:29;;;;;;;;;;;23.10;99.90;;;;;;2619078;54;19946;-67
2022/08/19 00:16:59;;;;;;;;;;;23.10;99.90;;;;;;2617832;54;19950;-70
2022/08/19 00:19:29;;;;;;;;;;;23.10;99.90;;;;;;2618211;54;19973;-68
2022/08/19 00:21:58;;;;;;;;;;;23.10;99.90;;;;;;2619240;47;19954;-67
2022/08/19 00:24:28;;;;;;;;;;;23.10;99.90;;;;;;2617251;48;19946;-68
2022/08/19 00:27:01;;;;;;;;;;;23.10;99.90;;;;;;2615839;47;19939;-68
2022/08/19 00:29:50;;;;;;;;;;;23.10;99.90;;;;;;2615597;54;19950;-69
2022/08/19 00:32:21;;;;;;;;;;;23.00;99.90;;;;;;2616693;47;19950;-69
2022/08/19 00:34:52;;;;;;;;;;;23.00;99.90;;;;;;2616878;47;19939;-69
2022/08/19 00:37:22;;;;;;;;;;;23.00;99.90;;;;;;2617058;54;19946;-67
2022/08/19 00:39:52;;;;;;;;;;;23.00;99.90;;;;;;2616766;54;19954;-68
2022/08/19 00:42:28;;;;;;;;;;;23.00;99.90;;;;;;2619732;54;19953;-68
2022/08/19 00:44:57;;;;;;;;;;;23.00;99.90;;;;;;2620778;46;20101;-67
2022/08/19 00:47:27;;;;;;;;;;;22.90;99.90;;;;;;2618549;39;20373;-68
2022/08/19 00:49:58;;;;;;;;;;;22.90;99.90;;;;;;2616301;54;19947;-70
2022/08/19 00:52:30;;;;;;;;;;;22.90;99.90;;;;;;2616701;47;19946;-67
2022/08/19 00:55:00;;;;;;;;;;;22.90;99.90;;;;;;2617017;54;19973;-66
2022/08/19 00:57:35;;;;;;;;;;;22.90;99.90;;;;;;2617052;47;19946;-66
2022/08/19 01:00:08;;;;;;;;;;;22.90;99.90;;;;;;2616112;54;20449;-67
2022/08/19 01:02:38;;;;;;;;;;;22.90;99.90;;;;;;2617056;47;19947;-68
2022/08/19 01:05:10;;;;;;;;;;;22.90;99.90;;;;;;2615761;54;19947;-68
2022/08/19 01:07:41;;;;;;;;;;;22.80;99.90;;;;;;2618310;54;20690;-67
2022/08/19 01:10:11;;;;;;;;;;;22.80;99.90;;;;;;2617892;47;19996;-67
2022/08/19 01:12:43;;;;;;;;;;;22.80;99.90;;;;;;2618219;54;19938;-69
2022/08/19 01:15:14;;;;;;;;;;;22.80;99.90;;;;;;2619596;54;19946;-68
2022/08/19 01:17:44;;;;;;;;;;;22.80;99.90;;;;;;2616503;39;20533;-68
2022/08/19 01:20:14;;;;;;;;;;;22.80;99.90;;;;;;2615142;39;20401;-69
2022/08/19 01:22:48;;;;;;;;;;;22.70;99.90;;;;;;2615637;54;19946;-69
2022/08/19 01:25:19;;;;;;;;;;;22.70;99.90;;;;;;2615513;47;19947;-68
2022/08/19 01:27:49;;;;;;;;;;;22.70;99.90;;;;;;2615791;47;20043;-68
2022/08/19 01:30:23;;;;;;;;;;;22.70;99.90;;;;;;2615077;47;20672;-66
2022/08/19 01:32:53;;;;;;;;;;;22.70;99.90;;;;;;2615484;54;19951;-67
2022/08/19 01:35:23;;;;;;;;;;;22.60;99.90;;;;;;2615926;54;20566;-67
2022/08/19 01:37:56;;;;;;;;;;;22.60;99.90;;;;;;2615577;54;19947;-67
2022/08/19 01:40:28;;;;;;;;;;;22.60;99.90;;;;;;2615278;54;19957;-66
2022/08/19 01:42:58;;;;;;;;;;;22.50;99.90;;;;;;2615276;47;19946;-66
2022/08/19 01:45:29;;;;;;;;;;;22.50;99.90;;;;;;2615039;39;20201;-67
2022/08/19 01:47:58;;;;;;;;;;;22.50;99.90;;;;;;2615082;46;19947;-67
2022/08/19 01:50:31;;;;;;;;;;;22.50;99.90;;;;;;2615409;39;20430;-67
2022/08/19 01:53:05;;;;;;;;;;;22.50;99.90;;;;;;2615181;51;19946;-66
2022/08/19 01:55:37;;;;;;;;;;;22.50;99.90;;;;;;2615760;54;20090;-66
2022/08/19 01:58:11;;;;;;;;;;;22.50;99.90;;;;;;2615288;54;20033;-66
2022/08/19 02:00:40;;;;;;;;;;;22.50;99.90;;;;;;2615088;54;20470;-64
2022/08/19 02:03:11;;;;;;;;;;;22.40;99.90;;;;;;2617392;54;19946;-66
2022/08/19 02:05:41;;;;;;;;;;;22.40;99.90;;;;;;2618497;39;20372;-66
2022/08/19 02:08:13;;;;;;;;;;;22.40;99.90;;;;;;2619566;39;20345;-65
2022/08/19 02:10:45;;;;;;;;;;;22.40;99.90;;;;;;2618374;47;20031;-68
2022/08/19 02:13:15;;;;;;;;;;;22.40;99.90;;;;;;2619090;54;20457;-66
2022/08/19 02:15:54;;;;;;;;;;;22.40;99.90;;;;;;2618859;47;20477;-67
2022/08/19 02:18:24;;;;;;;;;;;22.40;99.90;;;;;;2618925;54;20464;-68
2022/08/19 02:20:56;;;;;;;;;;;22.30;99.90;;;;;;2619717;39;20334;-69
2022/08/19 02:23:28;;;;;;;;;;;22.30;99.90;;;;;;2620735;54;19946;-68
2022/08/19 02:25:58;;;;;;;;;;;22.30;99.90;;;;;;2619904;47;19946;-68
2022/08/19 02:28:27;;;;;;;;;;;22.30;99.90;;;;;;2623540;54;19947;-67
2022/08/19 02:30:58;;;;;;;;;;;22.30;99.90;;;;;;2624188;47;19951;-66
2022/08/19 02:33:27;;;;;;;;;;;22.30;99.90;;;;;;2619503;54;19947;-68
2022/08/19 02:35:57;;;;;;;;;;;22.20;99.90;;;;;;2617155;49;19939;-68
2022/08/19 02:38:26;;;;;;;;;;;22.20;99.90;;;;;;2617457;54;19946;-64
2022/08/19 02:40:58;;;;;;;;;;;22.20;99.90;;;;;;2620064;54;19946;-64
2022/08/19 02:43:28;;;;;;;;;;;22.20;99.90;;;;;;2620297;47;19942;-65
2022/08/19 02:46:02;;;;;;;;;;;22.20;99.90;;;;;;2618175;54;19950;-66
2022/08/19 02:48:32;;;;;;;;;;;22.20;99.90;;;;;;2616749;54;19946;-64
2022/08/19 02:51:02;;;;;;;;;;;22.10;99.90;;;;;;2617042;54;19946;-65
2022/08/19 02:53:34;;;;;;;;;;;22.10;99.90;;;;;;2616763;54;19990;-66
2022/08/19 02:56:08;;;;;;;;;;;22.10;99.90;;;;;;2617123;54;19946;-66
2022/08/19 02:58:37;;;;;;;;;;;22.10;99.90;;;;;;2617080;54;19953;-65
2022/08/19 03:01:07;;;;;;;;;;;22.00;99.90;;;;;;2616000;54;19938;-66
2022/08/19 03:03:37;;;;;;;;;;;22.00;99.90;;;;;;2615308;54;19973;-67
2022/08/19 03:06:07;;;;;;;;;;;22.00;99.90;;;;;;2615914;54;20461;-67
2022/08/19 03:08:40;;;;;;;;;;;21.90;99.90;;;;;;2616955;54;19939;-66
2022/08/19 03:11:15;;;;;;;;;;;21.90;99.90;;;;;;2616042;54;19946;-67
2022/08/19 03:13:45;;;;;;;;;;;21.90;99.90;;;;;;2616636;54;19946;-67
2022/08/19 03:16:15;;;;;;;;;;;21.90;99.90;;;;;;2615680;54;19946;-67
2022/08/19 03:18:45;;;;;;;;;;;21.90;99.90;;;;;;2615377;54;19947;-67
2022/08/19 03:21:17;;;;;;;;;;;21.80;99.90;;;;;;2614073;54;19946;-67
2022/08/19 03:23:49;;;;;;;;;;;21.80;99.90;;;;;;2615346;54;19946;-69
2022/08/19 03:26:19;;;;;;;;;;;21.70;99.90;;;;;;2615343;54;19946;-68
2022/08/19 03:28:49;;;;;;;;;;;21.70;99.90;;;;;;2614845;47;19951;-69
2022/08/19 03:31:28;;;;;;;;;;;21.70;99.90;;;;;;2614936;54;19946;-68
2022/08/19 03:34:14;;;;;;;;;;;21.70;99.90;;;;;;2615198;54;20458;-70
2022/08/19 03:36:44;;;;;;;;;;;21.60;99.90;;;;;;2615378;54;19946;-68
2022/08/19 03:39:16;;;;;;;;;;;21.60;99.90;;;;;;2614654;47;20429;-69
2022/08/19 03:41:47;;;;;;;;;;;21.50;99.90;;;;;;2615882;39;20194;-69
2022/08/19 03:44:19;;;;;;;;;;;21.50;99.90;;;;;;2615583;54;19953;-69
2022/08/19 03:46:49;;;;;;;;;;;21.50;99.90;;;;;;2620260;54;19947;-69
2022/08/19 03:49:19;;;;;;;;;;;21.40;99.90;;;;;;2620706;54;19957;-69
2022/08/19 03:51:50;;;;;;;;;;;21.40;99.90;;;;;;2620428;54;19947;-68
2022/08/19 03:54:23;;;;;;;;;;;21.40;99.90;;;;;;2620145;47;19946;-66
2022/08/19 03:56:54;;;;;;;;;;;21.40;99.90;;;;;;2619761;54;19958;-66
2022/08/19 03:59:25;;;;;;;;;;;21.40;99.90;;;;;;2620048;47;19954;-64
2022/08/19 04:01:55;;;;;;;;;;;21.30;99.90;;;;;;2621047;39;20323;-65
2022/08/19 04:04:25;;;;;;;;;;;21.30;99.90;;;;;;2619791;54;19946;-64
2022/08/19 04:06:58;;;;;;;;;;;21.30;99.90;;;;;;2616220;54;19950;-64
2022/08/19 04:09:30;;;;;;;;;;;21.30;99.90;;;;;;2614755;54;19958;-66
2022/08/19 04:12:00;;;;;;;;;;;21.30;99.90;;;;;;2616931;47;19957;-63
2022/08/19 04:14:30;;;;;;;;;;;21.30;99.90;;;;;;2617810;54;19953;-66
2022/08/19 04:17:01;;;;;;;;;;;21.20;99.90;;;;;;2618386;54;19954;-66
2022/08/19 04:19:32;;;;;;;;;;;21.20;99.90;;;;;;2618349;39;20096;-65
2022/08/19 04:22:02;;;;;;;;;;;21.20;99.90;;;;;;2620097;47;19953;-69
2022/08/19 04:24:34;;;;;;;;;;;21.20;99.90;;;;;;2618248;54;19990;-66
2022/08/19 04:27:05;;;;;;;;;;;21.20;99.90;;;;;;2617706;54;19958;-64
2022/08/19 04:29:34;;;;;;;;;;;21.10;99.90;;;;;;2620483;54;19942;-66
2022/08/19 04:32:05;;;;;;;;;;;21.10;99.90;;;;;;2619836;54;19946;-65
2022/08/19 04:34:38;;;;;;;;;;;21.10;99.90;;;;;;2621317;54;20564;-65
2022/08/19 04:37:32;;;;;;;;;;;21.10;99.90;;;;;;2618188;54;19973;-64
2022/08/19 04:42:50;;;;;;;;;;;21.00;99.90;;;;;;2615668;54;19947;-65
2022/08/19 04:45:20;;;;;;;;;;;21.00;99.90;;;;;;2615641;47;20457;-64
2022/08/19 04:47:51;;;;;;;;;;;21.00;99.90;;;;;;2615399;54;19958;-64
2022/08/19 04:50:27;;;;;;;;;;;21.00;99.90;;;;;;2614929;47;19946;-64
2022/08/19 04:52:57;;;;;;;;;;;21.00;99.90;;;;;;2617888;54;19953;-64
2022/08/19 04:55:29;;;;;;;;;;;21.00;99.90;;;;;;2615690;54;19939;-64
2022/08/19 04:58:05;;;;;;;;;;;21.00;99.90;;;;;;2615759;54;19958;-64
2022/08/19 05:00:34;;;;;;;;;;;21.00;99.90;;;;;;2614790;54;19954;-64
2022/08/19 05:03:06;;;;;;;;;;;21.00;99.90;;;;;;2615285;52;19951;-64
2022/08/19 05:05:36;;;;;;;;;;;21.00;99.90;;;;;;2614813;47;19946;-63
2022/08/19 05:08:18;;;;;;;;;;;21.00;99.90;;;;;;2615746;47;19946;-64
2022/08/19 05:11:02;;;;;;;;;;;21.00;99.90;;;;;;2615886;54;19946;-65
2022/08/19 05:13:32;;;;;;;;;;;21.00;99.90;;;;;;2615480;47;19946;-64
2022/08/19 05:16:02;;;;;;;;;;;21.10;99.90;;;;;;2615593;39;20374;-64
2022/08/19 05:23:57;;;;;;;;;;;21.20;99.90;;;;;;2616758;46;19947;-64
2022/08/19 05:26:29;;;;;;;;;;;21.20;99.90;;;;;;2615852;54;19946;-66
2022/08/19 05:28:58;;;;;;;;;;;21.20;99.90;;;;;;2615528;47;19946;-64
2022/08/19 05:31:28;;;;;;;;;;;21.20;99.90;;;;;;2617961;39;20349;-66
2022/08/19 05:33:58;;;;;;;;;;;21.30;99.90;;;;;;2617455;54;19938;-64
2022/08/19 05:36:27;;;;;;;;;;;21.20;99.90;;;;;;2619003;54;19969;-66
2022/08/19 05:38:57;;;;;;;;;;;21.30;99.90;;;;;;2618577;54;19946;-66
2022/08/19 05:41:30;;;;;;;;;;;21.40;99.90;;;;;;2620491;54;19950;-63
2022/08/19 05:44:00;;;;;;;;;;;21.50;99.90;;;;;;2615352;54;19958;-66
2022/08/19 05:46:29;;;;;;;;;;;21.50;99.90;;;;;;2615809;54;19950;-66
2022/08/19 05:48:59;;;;;;;;;;;21.50;99.90;;;;;;2615341;54;19954;-66
2022/08/19 05:51:28;;;;;;;;;;;21.70;99.90;;;;;;2616093;54;19947;-66
2022/08/19 05:53:58;;;;;;;;;;;21.80;99.90;;;;;;2615986;54;19961;-66
2022/08/19 05:56:30;;;;;;;;;;;21.80;99.90;;;;;;2616159;54;19954;-66
2022/08/19 05:59:00;;;;;;;;;;;21.90;99.90;;;;;;2615349;54;19953;-64
2022/08/19 06:01:30;;;;;;;;;;;22.00;99.90;;;;;;2616328;39;20354;-64
2022/08/19 06:03:59;;;;;;;;;;;22.00;99.90;;;;;;2616060;39;20361;-63
2022/08/19 06:06:29;;;;;;;;;;;22.10;99.90;;;;;;2615977;54;19947;-64
2022/08/19 06:08:58;;;;;;;;;;;22.10;99.90;;;;;;2616982;54;19954;-64
2022/08/19 06:11:36;;;;;;;;;;;22.10;99.90;;;;;;2623725;54;19953;-64
2022/08/19 06:14:07;;;;;;;;;;;22.20;99.90;;;;;;2623528;54;19969;-65
2022/08/19 06:16:45;;;;;;;;;;;22.20;99.90;;;;;;2615848;54;19994;-66
2022/08/19 06:19:15;;;;;;;;;;;22.30;99.90;;;;;;2616879;39;20346;-65
2022/08/19 06:21:47;;;;;;;;;;;22.40;99.90;;;;;;2616160;47;19946;-66
2022/08/19 06:24:18;;;;;;;;;;;22.40;99.90;;;;;;2616017;39;20416;-65
2022/08/19 06:26:50;;;;;;;;;;;22.50;99.90;;;;;;2615839;54;19958;-66
2022/08/19 06:29:22;;;;;;;;;;;22.50;99.90;;;;;;2616928;54;20006;-66
2022/08/19 06:31:54;;;;;;;;;;;22.60;99.90;;;;;;2619229;54;19979;-66
2022/08/19 06:34:23;;;;;;;;;;;22.70;99.90;;;;;;2619550;54;19992;-66
2022/08/19 06:36:54;;;;;;;;;;;22.70;99.90;;;;;;2616766;54;19946;-64
2022/08/19 06:39:24;;;;;;;;;;;22.80;99.90;;;;;;2615379;54;19939;-65
2022/08/19 06:41:58;;;;;;;;;;;22.80;99.90;;;;;;2616383;54;19947;-64
2022/08/19 06:44:28;;;;;;;;;;;22.80;99.90;;;;;;2621585;46;19938;-65
2022/08/19 06:47:02;;;;;;;;;;;22.90;99.90;;;;;;2618673;54;20065;-64
2022/08/19 06:49:38;;;;;;;;;;;22.90;99.90;;;;;;2616247;54;19963;-64
2022/08/19 06:52:08;;;;;;;;;;;23.00;99.90;;;;;;2618067;54;19938;-66
2022/08/19 06:54:42;;;;;;;;;;;23.10;99.90;;;;;;2622444;47;20353;-65
2022/08/19 06:57:28;;;;;;;;;;;23.10;99.90;;;;;;2619379;54;20067;-65
2022/08/19 06:59:57;;;;;;;;;;;23.10;99.90;;;;;;2615062;47;19946;-65
2022/08/19 07:02:27;;;;;;;;;;;23.30;99.90;;;;;;2615911;47;19947;-66
2022/08/19 07:04:57;;;;;;;;;;;23.30;99.90;;;;;;2616120;54;20469;-67
2022/08/19 07:07:28;;;;;;;;;;;23.30;99.90;;;;;;2616003;54;19947;-66
2022/08/19 07:09:57;;;;;;;;;;;23.40;99.90;;;;;;2615575;54;19953;-64
2022/08/19 07:12:34;;;;;;;;;;;23.50;99.90;;;;;;2615397;54;20041;-66
2022/08/19 07:15:08;;;;;;;;;;;23.50;99.90;;;;;;2615319;54;19954;-65
2022/08/19 07:17:38;;;;;;;;;;;23.50;99.90;;;;;;2615570;54;19947;-65
2022/08/19 07:20:09;;;;;;;;;;;23.50;99.90;;;;;;2615210;47;19938;-66
2022/08/19 07:22:39;;;;;;;;;;;23.60;99.90;;;;;;2615821;54;19981;-65
2022/08/19 07:25:09;;;;;;;;;;;23.70;99.90;;;;;;2615793;54;19946;-67
2022/08/19 07:27:41;;;;;;;;;;;23.70;99.90;;;;;;2616602;54;19946;-66
2022/08/19 07:30:17;;;;;;;;;;;23.80;99.90;;;;;;2615044;54;20374;-67
2022/08/19 07:32:46;;;;;;;;;;;23.80;99.90;;;;;;2615550;51;19962;-67
2022/08/19 07:35:20;;;;;;;;;;;23.80;99.90;;;;;;2616874;47;19950;-65
2022/08/19 07:37:49;;;;;;;;;;;23.90;99.90;;;;;;2617143;54;19950;-66
2022/08/19 07:40:19;;;;;;;;;;;24.00;99.90;;;;;;2621383;47;19950;-67
2022/08/19 07:42:51;;;;;;;;;;;24.00;99.90;;;;;;2622670;54;20006;-67
2022/08/19 07:45:20;;;;;;;;;;;24.10;99.90;;;;;;2622208;54;19951;-66
2022/08/19 07:47:50;;;;;;;;;;;24.10;99.90;;;;;;2622309;54;20456;-65
2022/08/19 07:50:20;;;;;;;;;;;24.10;99.90;;;;;;2621751;54;20465;-65
2022/08/19 07:52:50;;;;;;;;;;;24.20;99.90;;;;;;2618143;39;20319;-66
2022/08/19 07:55:21;;;;;;;;;;;24.20;99.90;;;;;;2616958;54;19954;-65
2022/08/19 07:58:13;;;;;;;;;;;24.20;99.90;;;;;;2617512;47;20430;-66
2022/08/19 08:00:43;;;;;;;;;;;24.30;99.90;;;;;;2617653;39;20264;-67
2022/08/19 08:03:13;;;;;;;;;;;24.40;99.90;;;;;;2616994;54;19952;-68
2022/08/19 08:11:17;;;;;;;;;;;24.50;99.90;;;;;;2616037;47;20515;-66
2022/08/19 08:13:51;;;;;;;;;;;24.50;99.90;;;;;;2616628;54;19948;-69
2022/08/19 08:16:32;;;;;;;;;;;24.60;99.90;;;;;;2617387;39;20228;-66
2022/08/19 08:19:03;;;;;;;;;;;24.60;99.90;;;;;;2615981;47;20013;-66
2022/08/19 08:21:48;;;;;;;;;;;24.60;99.90;;;;;;2617146;39;20444;-66
2022/08/19 08:24:20;;;;;;;;;;;24.60;99.90;;;;;;2616260;54;19947;-68
2022/08/19 08:26:49;;;;;;;;;;;24.50;99.90;;;;;;2615944;54;19938;-66
2022/08/19 08:29:30;;;;;;;;;;;24.50;99.90;;;;;;2615602;46;19969;-67
2022/08/19 08:32:03;;;;;;;;;;;24.50;99.90;;;;;;2617871;54;19938;-66
2022/08/19 08:34:43;;;;;;;;;;;24.50;99.90;;;;;;2615923;54;19955;-68
2022/08/19 08:37:15;;;;;;;;;;;24.50;99.90;;;;;;2615394;54;20063;-66
2022/08/19 08:39:45;;;;;;;;;;;24.40;99.90;;;;;;2614688;54;19953;-68
2022/08/19 08:42:20;;;;;;;;;;;24.40;99.90;;;;;;2615377;54;19951;-67
2022/08/19 08:44:55;;;;;;;;;;;24.40;99.90;;;;;;2615043;47;19954;-68
2022/08/19 08:47:47;;;;;;;;;;;24.30;99.90;;;;;;2615126;54;19953;-66
2022/08/19 08:50:20;;;;;;;;;;;24.40;99.90;;;;;;2614808;54;19946;-67
2022/08/19 08:52:55;;;;;;;;;;;24.40;99.90;;;;;;2620111;47;19947;-67
2022/08/19 08:55:26;;;;;;;;;;;24.50;99.90;;;;;;2618003;39;20334;-67
2022/08/19 08:58:06;;;;;;;;;;;24.60;99.90;;;;;;2615572;54;19947;-68
2022/08/19 09:00:40;;;;;;;;;;;24.80;99.90;;;;;;2615162;54;19965;-67
2022/08/19 09:03:20;;;;;;;;;;;24.90;99.90;;;;;;2615805;54;19947;-67
2022/08/19 09:05:55;;;;;;;;;;;25.00;99.90;;;;;;2615710;54;19979;-65
2022/08/19 09:08:31;;;;;;;;;;;25.10;99.90;;;;;;2615980;47;19953;-67
2022/08/19 09:11:02;;;;;;;;;;;25.10;99.90;;;;;;2615499;47;19946;-67
2022/08/19 09:13:37;;;;;;;;;;;25.20;99.90;;;;;;2617531;39;20400;-67
2022/08/19 09:16:12;;;;;;;;;;;25.30;99.90;;;;;;2619685;54;19946;-67
2022/08/19 09:18:43;;;;;;;;;;;25.40;99.90;;;;;;2621315;39;20127;-67
2022/08/19 09:21:12;;;;;;;;;;;25.40;99.90;;;;;;2621649;39;20328;-67
2022/08/19 09:23:43;;;;;;;;;;;25.40;99.90;;;;;;2620882;54;19953;-67
2022/08/19 09:26:15;;;;;;;;;;;25.50;99.90;;;;;;2621957;54;20410;-67
2022/08/19 09:28:46;;;;;;;;;;;25.60;99.90;;;;;;2622140;54;19947;-66
2022/08/19 09:31:20;;;;;;;;;;;25.60;99.90;;;;;;2622358;54;19950;-65
2022/08/19 09:33:50;;;;;;;;;;;25.80;99.90;;;;;;2620860;54;19953;-67
2022/08/19 09:36:23;;;;;;;;;;;25.80;99.90;;;;;;2616080;47;19953;-66
2022/08/19 09:39:03;;;;;;;;;;;25.80;99.90;;;;;;2615788;39;20159;-67
2022/08/19 09:41:44;;;;;;;;;;;26.00;99.90;;;;;;2616161;47;20536;-67
2022/08/19 09:44:15;;;;;;;;;;;26.10;99.90;;;;;;2617585;54;19973;-68
2022/08/19 09:46:50;;;;;;;;;;;26.20;99.90;;;;;;2618737;54;19946;-66
2022/08/19 09:49:21;;;;;;;;;;;26.30;99.90;;;;;;2619609;54;19950;-66
2022/08/19 09:51:55;;;;;;;;;;;26.30;99.90;;;;;;2620346;47;19953;-66
2022/08/19 09:54:25;;;;;;;;;;;26.50;99.90;;;;;;2619474;47;20567;-66
2022/08/19 09:56:55;;;;;;;;;;;26.60;99.90;;;;;;2619623;54;19938;-67
2022/08/19 09:59:25;;;;;;;;;;;26.70;99.90;;;;;;2620920;54;20448;-68
2022/08/19 10:01:57;;;;;;;;;;;26.80;99.90;;;;;;2620761;54;19947;-66
2022/08/19 10:07:31;;;;;;;;;;;26.90;99.90;;;;;;2617542;54;19958;-69
2022/08/19 10:10:05;;;;;;;;;;;27.00;99.90;;;;;;2617794;54;19938;-66
2022/08/19 10:12:36;;;;;;;;;;;27.00;99.90;;;;;;2617396;54;19953;-66
2022/08/19 10:15:07;;;;;;;;;;;27.10;99.90;;;;;;2616054;54;19981;-67
2022/08/19 10:17:40;;;;;;;;;;;27.10;99.90;;;;;;2616593;54;19946;-66
2022/08/19 10:20:16;;;;;;;;;;;27.20;99.90;;;;;;2616817;47;20480;-67
2022/08/19 10:22:45;;;;;;;;;;;27.30;99.90;;;;;;2616250;54;20556;-67
2022/08/19 10:25:20;;;;;;;;;;;27.20;99.90;;;;;;2616706;54;20309;-66
2022/08/19 10:27:50;;;;;;;;;;;27.30;99.90;;;;;;2616067;54;20449;-66
2022/08/19 10:30:24;;;;;;;;;;;27.20;99.90;;;;;;2615224;47;20490;-66
2022/08/19 10:32:56;;;;;;;;;;;27.20;99.90;;;;;;2615777;47;19953;-66
2022/08/19 10:35:26;;;;;;;;;;;27.20;99.90;;;;;;2616077;54;19946;-67
2022/08/19 10:37:58;;;;;;;;;;;27.30;99.90;;;;;;2620339;54;19946;-66
2022/08/19 10:40:30;;;;;;;;;;;27.30;99.90;;;;;;2616604;54;19953;-66
2022/08/19 10:43:00;;;;;;;;;;;27.40;99.90;;;;;;2615596;54;19942;-66
2022/08/19 10:45:30;;;;;;;;;;;27.40;99.90;;;;;;2615671;39;20370;-66
2022/08/19 10:48:02;;;;;;;;;;;27.50;99.90;;;;;;2615389;54;19954;-66
2022/08/19 10:53:14;;;;;;;;;;;27.60;99.90;;;;;;2615829;47;19969;-64
2022/08/19 10:58:26;;;;;;;;;;;27.70;99.90;;;;;;2615289;54;19954;-66
2022/08/19 11:00:56;;;;;;;;;;;27.70;99.90;;;;;;2619634;54;19953;-67
2022/08/19 11:03:30;;;;;;;;;;;27.80;99.90;;;;;;2618179;54;19953;-66
2022/08/19 11:06:00;;;;;;;;;;;27.90;99.90;;;;;;2615732;54;19954;-66
2022/08/19 11:08:30;;;;;;;;;;;28.00;99.90;;;;;;2615219;54;19946;-67
2022/08/19 11:11:02;;;;;;;;;;;28.10;99.90;;;;;;2615476;47;19946;-66
2022/08/19 11:13:33;;;;;;;;;;;28.20;99.90;;;;;;2615773;39;20353;-66
2022/08/19 11:16:04;;;;;;;;;;;28.40;99.90;;;;;;2615494;54;19938;-67
2022/08/19 11:18:40;;;;;;;;;;;28.40;99.90;;;;;;2615334;54;20062;-67
2022/08/19 11:21:11;;;;;;;;;;;28.50;99.90;;;;;;2617227;47;19954;-67
2022/08/19 11:23:40;;;;;;;;;;;28.50;99.90;;;;;;2617585;39;20361;-66
2022/08/19 11:26:10;;;;;;;;;;;28.50;99.90;;;;;;2617492;39;20037;-66
2022/08/19 11:28:39;;;;;;;;;;;28.50;99.90;;;;;;2615114;54;19953;-67
2022/08/19 11:31:12;;;;;;;;;;;28.60;99.90;;;;;;2615062;54;19976;-66
2022/08/19 11:33:45;;;;;;;;;;;28.60;99.90;;;;;;2615486;47;19953;-66
2022/08/19 11:36:16;;;;;;;;;;;28.70;99.90;;;;;;2615220;54;19946;-67
2022/08/19 11:38:48;;;;;;;;;;;28.80;99.90;;;;;;2614936;47;20457;-68
2022/08/19 11:41:18;;;;;;;;;;;29.00;99.90;;;;;;2615125;54;19938;-67
2022/08/19 11:43:48;;;;;;;;;;;29.10;99.90;;;;;;2616286;39;20381;-66
2022/08/19 11:46:18;;;;;;;;;;;29.20;99.90;;;;;;2615776;54;19938;-66
2022/08/19 11:48:50;;;;;;;;;;;29.30;99.90;;;;;;2615113;54;19947;-66
2022/08/19 11:51:21;;;;;;;;;;;29.40;99.90;;;;;;2614771;54;20038;-68
2022/08/19 11:53:51;;;;;;;;;;;29.50;99.90;;;;;;2615207;51;19947;-67
2022/08/19 11:56:21;;;;;;;;;;;29.60;99.90;;;;;;2615432;54;19954;-66
2022/08/19 11:58:51;;;;;;;;;;;29.60;99.90;;;;;;2615038;54;19946;-66
2022/08/19 12:01:22;;;;;;;;;;;29.60;99.90;;;;;;2614919;54;20000;-66
2022/08/19 12:03:55;;;;;;;;;;;29.60;99.90;;;;;;2614908;54;20015;-67
2022/08/19 12:06:28;;;;;;;;;;;29.50;99.90;;;;;;2615218;54;19950;-66
2022/08/19 12:08:57;;;;;;;;;;;29.40;99.90;;;;;;2614844;54;19946;-66
2022/08/19 12:11:27;;;;;;;;;;;29.40;99.90;;;;;;2614809;54;19939;-66
2022/08/19 12:13:59;;;;;;;;;;;29.40;99.90;;;;;;2615208;47;19946;-66
2022/08/19 12:16:31;;;;;;;;;;;29.40;99.90;;;;;;2614850;54;19946;-67
2022/08/19 12:19:05;;;;;;;;;;;29.40;99.90;;;;;;2614631;54;19947;-67
2022/08/19 12:21:36;;;;;;;;;;;29.30;99.90;;;;;;2615030;47;19947;-66
2022/08/19 12:24:07;;;;;;;;;;;29.40;99.90;;;;;;2615086;54;19947;-66
2022/08/19 12:26:36;;;;;;;;;;;29.60;99.90;;;;;;2615489;54;19953;-67
2022/08/19 12:29:29;;;;;;;;;;;29.80;99.90;;;;;;2616436;31;20426;-67
2022/08/19 12:32:01;;;;;;;;;;;30.00;99.90;;;;;;2616520;47;19946;-66
2022/08/19 12:34:36;;;;;;;;;;;30.20;99.90;;;;;;2621523;54;19952;-66
2022/08/19 12:37:07;;;;;;;;;;;30.40;99.90;;;;;;2623231;54;19946;-67
2022/08/19 12:39:37;;;;;;;;;;;30.50;99.90;;;;;;2619758;54;19946;-66
2022/08/19 12:42:08;;;;;;;;;;;30.40;99.90;;;;;;2615922;54;19954;-66
2022/08/19 12:44:38;;;;;;;;;;;30.40;99.90;;;;;;2616054;54;19946;-64
2022/08/19 12:47:10;;;;;;;;;;;30.40;99.90;;;;;;2615756;54;19953;-64
2022/08/19 12:49:44;;;;;;;;;;;30.50;99.90;;;;;;2615793;54;19946;-64
2022/08/19 12:52:24;;;;;;;;;;;30.60;99.90;;;;;;2615982;54;19953;-64
2022/08/19 12:54:54;;;;;;;;;;;30.60;99.90;;;;;;2615952;54;19954;-64
2022/08/19 12:57:25;;;;;;;;;;;30.60;99.90;;;;;;2616219;54;19946;-64
2022/08/19 13:00:03;;;;;;;;;;;30.50;99.90;;;;;;2615553;54;19984;-65
2022/08/19 13:02:34;;;;;;;;;;;30.60;99.90;;;;;;2616258;51;19947;-64
2022/08/19 13:05:12;;;;;;;;;;;30.80;99.90;;;;;;2617077;54;19951;-64
2022/08/19 13:07:43;;;;;;;;;;;31.10;99.90;;;;;;2618148;54;19946;-65
2022/08/19 13:10:15;;;;;;;;;;;31.00;99.90;;;;;;2617517;54;20049;-64
2022/08/19 13:12:44;;;;;;;;;;;30.90;99.90;;;;;;2617139;54;20484;-64
2022/08/19 13:15:14;;;;;;;;;;;30.70;99.90;;;;;;2615812;54;19953;-64
2022/08/19 13:17:47;;;;;;;;;;;30.50;99.90;;;;;;2619957;54;19957;-64
2022/08/19 13:20:21;;;;;;;;;;;30.50;99.90;;;;;;2622885;54;19947;-64
2022/08/19 13:22:51;;;;;;;;;;;30.40;99.90;;;;;;2623704;54;19952;-64
2022/08/19 13:25:21;;;;;;;;;;;30.60;99.90;;;;;;2620308;54;19946;-63
2022/08/19 13:27:51;;;;;;;;;;;30.70;99.90;;;;;;2623411;47;19974;-64
2022/08/19 13:33:14;;;;;;;;;;;30.80;99.90;;;;;;2624020;54;19952;-64
2022/08/19 13:35:48;;;;;;;;;;;30.60;99.90;;;;;;2616531;54;19977;-64
2022/08/19 13:38:20;;;;;;;;;;;30.30;99.90;;;;;;2615728;54;19946;-63
2022/08/19 13:40:50;;;;;;;;;;;30.20;99.90;;;;;;2615497;54;20452;-64
2022/08/19 13:43:21;;;;;;;;;;;30.30;99.90;;;;;;2617658;54;19954;-63
2022/08/19 13:45:55;;;;;;;;;;;30.60;99.90;;;;;;2619459;54;20018;-63
2022/08/19 13:48:26;;;;;;;;;;;30.70;99.90;;;;;;2619345;54;19951;-63
2022/08/19 13:50:58;;;;;;;;;;;31.00;99.90;;;;;;2616295;54;19946;-66
2022/08/19 13:53:28;;;;;;;;;;;31.20;99.90;;;;;;2615667;39;20280;-62
2022/08/19 13:55:58;;;;;;;;;;;31.30;99.90;;;;;;2615934;39;20338;-63
2022/08/19 13:58:28;;;;;;;;;;;31.10;99.90;;;;;;2615614;54;19954;-62
2022/08/19 14:00:58;;;;;;;;;;;30.90;99.90;;;;;;2615474;54;19939;-63
2022/08/19 14:03:28;;;;;;;;;;;30.90;99.90;;;;;;2615483;47;20062;-63
2022/08/19 14:06:01;;;;;;;;;;;31.20;99.90;;;;;;2615787;54;19939;-63
2022/08/19 14:08:32;;;;;;;;;;;31.50;99.90;;;;;;2615573;54;20304;-63
2022/08/19 14:11:01;;;;;;;;;;;31.80;99.90;;;;;;2615940;47;19946;-63
2022/08/19 14:13:35;;;;;;;;;;;32.00;99.90;;;;;;2616003;39;20373;-63
2022/08/19 14:16:09;;;;;;;;;;;32.30;99.90;;;;;;2615336;54;19953;-62
2022/08/19 14:18:38;;;;;;;;;;;32.40;99.90;;;;;;2615258;47;19939;-64
2022/08/19 14:21:16;;;;;;;;;;;32.20;99.90;;;;;;2615351;54;19961;-64
2022/08/19 14:23:46;;;;;;;;;;;32.00;99.90;;;;;;2615415;47;19953;-65
2022/08/19 14:26:17;;;;;;;;;;;31.90;99.90;;;;;;2616344;54;19946;-64
2022/08/19 14:28:47;;;;;;;;;;;32.10;99.90;;;;;;2616939;54;19954;-64
2022/08/19 14:31:19;;;;;;;;;;;32.20;99.90;;;;;;2616172;54;19946;-63
2022/08/19 14:33:48;;;;;;;;;;;32.10;99.90;;;;;;2616371;39;20394;-63
2022/08/19 14:36:21;;;;;;;;;;;32.00;99.90;;;;;;2616906;54;19945;-63
2022/08/19 14:38:51;;;;;;;;;;;32.10;99.90;;;;;;2620131;54;19953;-63
2022/08/19 14:41:22;;;;;;;;;;;32.30;99.90;;;;;;2618439;54;19939;-63
2022/08/19 14:43:52;;;;;;;;;;;32.50;99.90;;;;;;2619058;54;19946;-62
2022/08/19 14:46:23;;;;;;;;;;;32.70;99.90;;;;;;2615975;54;19950;-63
2022/08/19 14:48:54;;;;;;;;;;;32.70;99.90;;;;;;2617655;39;20487;-63
2022/08/19 14:51:27;;;;;;;;;;;32.70;99.90;;;;;;2617639;54;20489;-63
2022/08/19 14:53:57;;;;;;;;;;;32.90;99.90;;;;;;2616769;54;20480;-63
2022/08/19 14:56:28;;;;;;;;;;;33.00;99.90;;;;;;2615395;54;19946;-63
2022/08/19 14:59:00;;;;;;;;;;;32.80;99.90;;;;;;2615500;54;19953;-62
2022/08/19 15:01:30;;;;;;;;;;;32.50;99.90;;;;;;2615445;54;19946;-63
2022/08/19 15:04:00;;;;;;;;;;;32.30;99.90;;;;;;2615766;54;19957;-63
2022/08/19 15:06:32;;;;;;;;;;;32.20;99.90;;;;;;2615750;54;20457;-63
2022/08/19 15:09:02;;;;;;;;;;;32.40;99.90;;;;;;2615688;39;20238;-63